Time;durP1;ratioP1;P1;durP2;ratioP2;P2;SDS_P1;SDS_P2;PMS_P1;PMS_P2;Temp;Humidity;BMP_temperature;BMP_pressure;BME280_temperature;BME280_humidity;BME280_pressure;Samples;Min_cycle;Max_cycle;Signal;HPM_P1;HPM_P2
2023/05/30 00:01:18;;;;;;;6.60;3.43;;;;;;;;;;5110461;28;20184;-72
2023/05/30 00:03:45;;;;;;;5.23;3.50;;;;;;;;;;5109995;28;20579;-72
2023/05/30 00:06:12;;;;;;;7.73;3.67;;;;;;;;;;5100109;28;20670;-72
2023/05/30 00:08:39;;;;;;;6.13;3.57;;;;;;;;;;5095615;28;20199;-72
2023/05/30 00:11:06;;;;;;;5.23;3.60;;;;;;;;;;5101668;28;20211;-72
2023/05/30 00:13:32;;;;;;;4.77;3.40;;;;;;;;;;5102665;28;20179;-72
2023/05/30 00:15:59;;;;;;;6.07;3.43;;;;;;;;;;5084381;28;20175;-72
2023/05/30 00:18:25;;;;;;;7.40;3.67;;;;;;;;;;5098758;28;20549;-72
2023/05/30 00:20:51;;;;;;;6.00;3.10;;;;;;;;;;5087081;28;20184;-72
2023/05/30 00:23:18;;;;;;;5.97;3.70;;;;;;;;;;5097890;28;20251;-72
2023/05/30 00:25:45;;;;;;;7.03;3.77;;;;;;;;;;5104293;28;20275;-72
2023/05/30 00:28:12;;;;;;;7.77;3.57;;;;;;;;;;5108298;28;20227;-72
2023/05/30 00:30:38;;;;;;;6.77;3.40;;;;;;;;;;5072240;28;20177;-72
2023/05/30 00:33:04;;;;;;;8.27;3.80;;;;;;;;;;5081975;28;20269;-72
2023/05/30 00:35:30;;;;;;;8.57;3.40;;;;;;;;;;5071147;28;20246;-72
2023/05/30 00:37:56;;;;;;;6.60;3.80;;;;;;;;;;5077098;28;20204;-72
2023/05/30 00:40:22;;;;;;;5.77;3.47;;;;;;;;;;5092135;28;20173;-72
2023/05/30 00:42:50;;;;;;;4.70;3.40;;;;;;;;;;5089634;28;20239;-72
2023/05/30 00:45:16;;;;;;;4.67;3.57;;;;;;;;;;5087907;28;20663;-73
2023/05/30 00:47:42;;;;;;;5.63;3.80;;;;;;;;;;5069990;28;20173;-72
2023/05/30 00:50:08;;;;;;;5.70;3.33;;;;;;;;;;5075602;28;20171;-72
2023/05/30 00:52:35;;;;;;;7.10;3.90;;;;;;;;;;5088959;28;20566;-72
2023/05/30 00:55:02;;;;;;;7.10;3.97;;;;;;;;;;5081490;28;20185;-72
2023/05/30 00:57:30;;;;;;;5.37;3.50;;;;;;;;;;5090172;28;20176;-72
2023/05/30 00:59:57;;;;;;;6.73;3.40;;;;;;;;;;5083793;28;20678;-72
2023/05/30 01:02:23;;;;;;;5.13;3.40;;;;;;;;;;5091129;28;20372;-71
2023/05/30 01:04:50;;;;;;;5.67;3.93;;;;;;;;;;5096934;27;20662;-71
2023/05/30 01:07:17;;;;;;;7.83;3.50;;;;;;;;;;5100141;28;20183;-71
2023/05/30 01:09:45;;;;;;;6.10;3.50;;;;;;;;;;5093827;28;20199;-72
2023/05/30 01:12:21;;;;;;;6.07;3.40;;;;;;;;;;5090878;28;20640;-72
2023/05/30 01:14:57;;;;;;;5.47;3.80;;;;;;;;;;5101545;28;20195;-72
2023/05/30 01:17:25;;;;;;;4.93;3.37;;;;;;;;;;5099718;28;20172;-72
2023/05/30 01:20:05;;;;;;;5.70;3.70;;;;;;;;;;5084814;28;20195;-72
2023/05/30 01:22:37;;;;;;;5.60;3.50;;;;;;;;;;5099871;28;20806;-72
2023/05/30 01:25:04;;;;;;;6.50;3.63;;;;;;;;;;5096221;28;20180;-72
2023/05/30 01:27:51;;;;;;;6.00;3.80;;;;;;;;;;5100219;28;20207;-72
2023/05/30 01:30:19;;;;;;;6.20;3.67;;;;;;;;;;5089726;28;20187;-72
2023/05/30 01:32:45;;;;;;;6.47;3.40;;;;;;;;;;5070114;28;20185;-72
2023/05/30 01:35:24;;;;;;;8.23;3.73;;;;;;;;;;5071118;28;20579;-72
2023/05/30 01:37:50;;;;;;;6.37;3.57;;;;;;;;;;5074931;28;20594;-72
2023/05/30 01:40:20;;;;;;;7.73;3.80;;;;;;;;;;5080119;28;20200;-72
2023/05/30 01:42:47;;;;;;;5.33;3.30;;;;;;;;;;5070939;28;21042;-71
2023/05/30 01:45:13;;;;;;;6.47;3.30;;;;;;;;;;5069546;28;20178;-71
2023/05/30 01:47:41;;;;;;;6.23;3.33;;;;;;;;;;5081627;28;20177;-71
2023/05/30 01:50:13;;;;;;;5.87;3.57;;;;;;;;;;5077834;28;20235;-72
2023/05/30 01:52:41;;;;;;;5.67;3.30;;;;;;;;;;5085806;28;20185;-72
2023/05/30 01:55:09;;;;;;;9.00;3.60;;;;;;;;;;5053810;28;20548;-72
2023/05/30 01:57:41;;;;;;;5.87;3.60;;;;;;;;;;5073903;28;20212;-72
2023/05/30 02:00:08;;;;;;;5.70;3.60;;;;;;;;;;5095548;28;20267;-72
2023/05/30 02:02:39;;;;;;;7.90;3.90;;;;;;;;;;5088713;28;20254;-72
2023/05/30 02:05:05;;;;;;;9.07;3.40;;;;;;;;;;5085326;28;20181;-72
2023/05/30 02:07:31;;;;;;;6.07;3.20;;;;;;;;;;5083578;28;20262;-72
2023/05/30 02:09:59;;;;;;;6.97;3.27;;;;;;;;;;5083522;28;20200;-72
2023/05/30 02:12:26;;;;;;;7.27;3.20;;;;;;;;;;5088033;28;20908;-72
2023/05/30 02:14:54;;;;;;;8.97;3.47;;;;;;;;;;5085615;28;20207;-72
2023/05/30 02:17:24;;;;;;;5.97;3.13;;;;;;;;;;5101089;28;20183;-72
2023/05/30 02:19:50;;;;;;;8.40;3.63;;;;;;;;;;5095148;28;20315;-72
2023/05/30 02:22:17;;;;;;;6.83;3.27;;;;;;;;;;5091306;28;20217;-72
2023/05/30 02:24:44;;;;;;;4.57;3.30;;;;;;;;;;5081622;28;20215;-72
2023/05/30 02:27:10;;;;;;;5.67;3.27;;;;;;;;;;5086398;28;20174;-72
2023/05/30 02:29:37;;;;;;;4.70;3.07;;;;;;;;;;5079832;28;20203;-72
2023/05/30 02:32:03;;;;;;;7.27;3.20;;;;;;;;;;5069964;28;20181;-72
2023/05/30 02:34:29;;;;;;;8.57;3.80;;;;;;;;;;5069156;28;20181;-72
2023/05/30 02:36:57;;;;;;;6.33;3.10;;;;;;;;;;5080233;28;20262;-72
2023/05/30 02:39:23;;;;;;;5.20;3.00;;;;;;;;;;5059368;28;20254;-72
2023/05/30 02:41:49;;;;;;;4.93;3.10;;;;;;;;;;5078870;28;20238;-72
2023/05/30 02:44:17;;;;;;;5.37;3.47;;;;;;;;;;5087775;28;20185;-72
2023/05/30 02:46:44;;;;;;;6.47;3.60;;;;;;;;;;5092157;28;20180;-72
2023/05/30 02:49:11;;;;;;;10.07;3.47;;;;;;;;;;5085704;28;20201;-73
2023/05/30 02:51:38;;;;;;;5.40;3.17;;;;;;;;;;5081408;28;20178;-72
2023/05/30 02:54:06;;;;;;;5.20;3.40;;;;;;;;;;5093046;28;20985;-72
2023/05/30 02:56:50;;;;;;;5.40;3.20;;;;;;;;;;5083782;28;20196;-72
2023/05/30 02:59:44;;;;;;;6.40;3.27;;;;;;;;;;5081788;28;20573;-71
2023/05/30 03:02:12;;;;;;;7.10;3.13;;;;;;;;;;5087241;28;20215;-71
2023/05/30 03:04:38;;;;;;;8.77;3.40;;;;;;;;;;5091745;28;20565;-71
2023/05/30 03:07:07;;;;;;;7.40;3.23;;;;;;;;;;5090099;28;20185;-71
2023/05/30 03:09:36;;;;;;;5.23;2.90;;;;;;;;;;5091405;28;20211;-71
2023/05/30 03:12:04;;;;;;;6.10;3.80;;;;;;;;;;5093212;28;20173;-71
2023/05/30 03:14:31;;;;;;;5.43;3.37;;;;;;;;;;5089032;28;20184;-71
2023/05/30 03:16:57;;;;;;;6.40;3.10;;;;;;;;;;5104640;28;20210;-71
2023/05/30 03:19:23;;;;;;;7.10;2.93;;;;;;;;;;5095121;28;20581;-71
2023/05/30 03:21:51;;;;;;;5.90;3.03;;;;;;;;;;5089430;28;20470;-71
2023/05/30 03:24:18;;;;;;;6.27;3.20;;;;;;;;;;5098151;28;20184;-71
2023/05/30 03:26:45;;;;;;;8.03;3.43;;;;;;;;;;5098769;28;20305;-71
2023/05/30 03:29:13;;;;;;;5.73;2.93;;;;;;;;;;5081567;28;20205;-71
2023/05/30 03:31:39;;;;;;;7.53;2.90;;;;;;;;;;5110643;28;20176;-71
2023/05/30 03:34:07;;;;;;;9.73;3.10;;;;;;;;;;5095963;28;20199;-71
2023/05/30 03:36:35;;;;;;;5.77;2.93;;;;;;;;;;5097619;28;20263;-71
2023/05/30 03:39:01;;;;;;;4.87;2.80;;;;;;;;;;5091696;28;20615;-71
2023/05/30 03:41:27;;;;;;;5.90;3.10;;;;;;;;;;5085788;28;20194;-71
2023/05/30 03:43:53;;;;;;;7.93;3.07;;;;;;;;;;5106790;28;20214;-71
2023/05/30 03:46:21;;;;;;;5.70;3.17;;;;;;;;;;5097438;28;20185;-71
2023/05/30 03:48:47;;;;;;;6.43;3.10;;;;;;;;;;5086698;28;20203;-71
2023/05/30 03:51:14;;;;;;;5.50;3.10;;;;;;;;;;5096195;28;20255;-71
2023/05/30 03:53:42;;;;;;;6.17;2.90;;;;;;;;;;5092797;28;20181;-72
2023/05/30 03:56:08;;;;;;;5.73;2.80;;;;;;;;;;5091017;28;20177;-72
2023/05/30 03:58:34;;;;;;;7.00;3.00;;;;;;;;;;5097916;28;20214;-72
2023/05/30 04:01:00;;;;;;;7.17;3.17;;;;;;;;;;5099828;28;20183;-72
2023/05/30 04:03:28;;;;;;;4.87;3.00;;;;;;;;;;5105749;28;20308;-72
2023/05/30 04:05:58;;;;;;;5.60;3.30;;;;;;;;;;5099546;28;20177;-72
2023/05/30 04:08:25;;;;;;;7.43;2.80;;;;;;;;;;5070352;28;20215;-72
2023/05/30 04:10:52;;;;;;;6.50;2.80;;;;;;;;;;5097180;28;20182;-71
2023/05/30 04:13:18;;;;;;;5.00;2.90;;;;;;;;;;5098288;28;20176;-71
2023/05/30 04:15:45;;;;;;;5.50;3.03;;;;;;;;;;5091655;28;20850;-71
2023/05/30 04:18:11;;;;;;;6.33;2.70;;;;;;;;;;5091306;28;20705;-71
2023/05/30 04:20:37;;;;;;;7.30;3.50;;;;;;;;;;5091685;28;20597;-71
2023/05/30 04:23:04;;;;;;;6.17;3.00;;;;;;;;;;5073551;28;20284;-71
2023/05/30 04:25:30;;;;;;;7.50;3.23;;;;;;;;;;5090693;28;20192;-72
2023/05/30 04:27:59;;;;;;;5.30;2.90;;;;;;;;;;5074197;28;20605;-72
2023/05/30 04:30:26;;;;;;;6.07;2.80;;;;;;;;;;5072346;28;20177;-72
2023/05/30 04:32:55;;;;;;;7.13;3.17;;;;;;;;;;5064916;28;20260;-71
2023/05/30 04:35:21;;;;;;;5.90;3.23;;;;;;;;;;5082468;28;20173;-71
2023/05/30 04:37:48;;;;;;;4.33;2.73;;;;;;;;;;5085893;28;20211;-72
2023/05/30 04:40:14;;;;;;;6.93;3.07;;;;;;;;;;5080948;28;20177;-72
2023/05/30 04:42:41;;;;;;;5.83;3.20;;;;;;;;;;5084358;28;20704;-71
2023/05/30 04:45:08;;;;;;;5.43;2.97;;;;;;;;;;5090736;28;20195;-71
2023/05/30 04:47:34;;;;;;;7.17;2.93;;;;;;;;;;5101663;28;20169;-71
2023/05/30 04:50:01;;;;;;;5.60;3.00;;;;;;;;;;5077531;28;20623;-73
2023/05/30 04:52:28;;;;;;;4.30;3.03;;;;;;;;;;5083559;28;20192;-73
2023/05/30 04:54:58;;;;;;;6.63;2.73;;;;;;;;;;5082070;28;20212;-72
2023/05/30 04:57:24;;;;;;;6.63;3.03;;;;;;;;;;5088154;28;20543;-73
2023/05/30 04:59:52;;;;;;;6.03;3.03;;;;;;;;;;5086166;28;20212;-72
2023/05/30 05:02:19;;;;;;;6.87;3.17;;;;;;;;;;5076004;28;20265;-72
2023/05/30 05:04:45;;;;;;;5.00;2.77;;;;;;;;;;5073828;28;20217;-72
2023/05/30 05:07:11;;;;;;;8.43;3.07;;;;;;;;;;5082648;28;20199;-77
2023/05/30 05:09:37;;;;;;;6.37;2.90;;;;;;;;;;5077887;28;20204;-75
2023/05/30 05:12:03;;;;;;;5.17;3.13;;;;;;;;;;5079570;28;20270;-75
2023/05/30 05:14:29;;;;;;;5.50;2.93;;;;;;;;;;5087253;28;20689;-73
2023/05/30 05:16:57;;;;;;;6.60;2.70;;;;;;;;;;5077699;28;20256;-74
2023/05/30 05:19:23;;;;;;;6.37;2.90;;;;;;;;;;5082849;28;20681;-76
2023/05/30 05:21:49;;;;;;;6.87;2.97;;;;;;;;;;5086679;28;20169;-74
2023/05/30 05:24:15;;;;;;;4.93;2.63;;;;;;;;;;5082886;28;20726;-73
2023/05/30 05:26:41;;;;;;;5.10;2.80;;;;;;;;;;5087378;28;20180;-75
2023/05/30 05:29:08;;;;;;;11.33;3.10;;;;;;;;;;5076582;28;20208;-73
2023/05/30 05:31:35;;;;;;;6.00;3.00;;;;;;;;;;5088129;28;20256;-73
2023/05/30 05:34:01;;;;;;;6.70;2.73;;;;;;;;;;5074419;28;20184;-73
2023/05/30 05:36:28;;;;;;;8.17;3.20;;;;;;;;;;5075852;28;21767;-73
2023/05/30 05:38:54;;;;;;;6.90;3.27;;;;;;;;;;5081084;28;20205;-73
2023/05/30 05:41:20;;;;;;;6.67;2.97;;;;;;;;;;5076663;28;20177;-73
2023/05/30 05:43:46;;;;;;;7.23;2.70;;;;;;;;;;5080515;28;20209;-74
2023/05/30 05:46:12;;;;;;;6.37;2.90;;;;;;;;;;5103912;28;20813;-74
2023/05/30 05:48:38;;;;;;;7.83;2.80;;;;;;;;;;5103406;28;20202;-73
2023/05/30 05:51:05;;;;;;;6.97;3.20;;;;;;;;;;5079364;28;20212;-73
2023/05/30 05:53:31;;;;;;;8.43;3.07;;;;;;;;;;5097933;28;20211;-73
2023/05/30 05:55:57;;;;;;;6.97;3.50;;;;;;;;;;5081631;28;20637;-73
2023/05/30 05:58:24;;;;;;;6.87;3.20;;;;;;;;;;5089465;28;20197;-73
2023/05/30 06:00:51;;;;;;;6.00;2.90;;;;;;;;;;5093879;28;20185;-74
2023/05/30 06:03:17;;;;;;;8.63;3.17;;;;;;;;;;5093083;28;20209;-73
2023/05/30 06:05:43;;;;;;;8.17;3.03;;;;;;;;;;5093046;28;20189;-74
2023/05/30 06:08:09;;;;;;;7.17;3.30;;;;;;;;;;5104177;28;20231;-73
2023/05/30 06:10:35;;;;;;;7.97;3.10;;;;;;;;;;5093675;28;20185;-73
2023/05/30 06:13:01;;;;;;;7.03;2.87;;;;;;;;;;5078656;28;20181;-73
2023/05/30 06:15:28;;;;;;;6.30;2.87;;;;;;;;;;5092032;28;20208;-74
2023/05/30 06:17:54;;;;;;;6.20;2.77;;;;;;;;;;5105521;28;20242;-73
2023/05/30 06:20:20;;;;;;;5.30;2.80;;;;;;;;;;5098962;28;20192;-73
2023/05/30 06:22:46;;;;;;;7.33;3.10;;;;;;;;;;5081108;28;20260;-73
2023/05/30 06:25:13;;;;;;;8.00;3.23;;;;;;;;;;5093117;28;20644;-73
2023/05/30 06:27:39;;;;;;;5.90;2.77;;;;;;;;;;5091841;28;20257;-73
2023/05/30 06:30:06;;;;;;;5.67;2.80;;;;;;;;;;5106664;28;20689;-73
2023/05/30 06:32:32;;;;;;;5.77;2.90;;;;;;;;;;5095138;28;20242;-73
2023/05/30 06:34:58;;;;;;;8.00;3.10;;;;;;;;;;5095570;28;20177;-73
2023/05/30 06:37:24;;;;;;;5.73;2.90;;;;;;;;;;5079718;28;20965;-73
2023/05/30 06:39:50;;;;;;;6.60;2.80;;;;;;;;;;5089872;28;20679;-73
2023/05/30 06:42:16;;;;;;;7.20;3.10;;;;;;;;;;5087569;28;20266;-73
2023/05/30 06:44:44;;;;;;;5.77;2.73;;;;;;;;;;5098114;28;20172;-73
2023/05/30 06:47:10;;;;;;;5.63;2.80;;;;;;;;;;5094380;28;20184;-73
2023/05/30 06:49:36;;;;;;;6.67;2.97;;;;;;;;;;5101291;28;20570;-73
2023/05/30 06:52:02;;;;;;;5.73;2.70;;;;;;;;;;5101114;28;20208;-73
2023/05/30 06:54:28;;;;;;;6.47;2.90;;;;;;;;;;5104670;28;20816;-73
2023/05/30 06:56:54;;;;;;;5.17;2.63;;;;;;;;;;5113647;28;20172;-73
2023/05/30 06:59:21;;;;;;;6.43;3.10;;;;;;;;;;5096495;28;20691;-73
2023/05/30 07:01:47;;;;;;;5.53;3.00;;;;;;;;;;5083924;28;20188;-73
2023/05/30 07:04:13;;;;;;;6.57;3.03;;;;;;;;;;5093936;28;20239;-73
2023/05/30 07:06:40;;;;;;;7.47;3.00;;;;;;;;;;5077187;28;20184;-73
2023/05/30 07:09:06;;;;;;;10.77;3.10;;;;;;;;;;5108013;28;20338;-73
2023/05/30 07:11:32;;;;;;;6.70;2.80;;;;;;;;;;5098750;28;20180;-73
2023/05/30 07:13:58;;;;;;;5.97;2.80;;;;;;;;;;5090440;28;20176;-73
2023/05/30 07:16:24;;;;;;;5.07;2.47;;;;;;;;;;5089339;28;20833;-73
2023/05/30 07:18:50;;;;;;;7.17;3.03;;;;;;;;;;5106149;28;20200;-73
2023/05/30 07:21:17;;;;;;;6.03;2.67;;;;;;;;;;5095808;28;20188;-73
2023/05/30 07:23:43;;;;;;;6.57;2.80;;;;;;;;;;5093474;28;20204;-73
2023/05/30 07:26:09;;;;;;;5.20;2.80;;;;;;;;;;5094358;28;20242;-73
2023/05/30 07:28:35;;;;;;;6.80;3.00;;;;;;;;;;5092288;28;22078;-73
2023/05/30 07:31:01;;;;;;;6.93;2.70;;;;;;;;;;5105497;28;20199;-73
2023/05/30 07:33:27;;;;;;;4.87;2.70;;;;;;;;;;5089259;28;20249;-73
2023/05/30 07:35:53;;;;;;;6.80;3.03;;;;;;;;;;5073914;28;20180;-73
2023/05/30 07:38:20;;;;;;;5.37;2.90;;;;;;;;;;5090566;28;20775;-72
2023/05/30 07:40:46;;;;;;;6.27;3.00;;;;;;;;;;5097818;28;20188;-76
2023/05/30 07:43:12;;;;;;;5.70;2.97;;;;;;;;;;5086806;28;20582;-76
2023/05/30 07:45:38;;;;;;;3.93;2.50;;;;;;;;;;5074860;28;20184;-74
2023/05/30 07:48:05;;;;;;;7.40;2.90;;;;;;;;;;5098290;28;20192;-76
2023/05/30 07:50:31;;;;;;;6.43;3.20;;;;;;;;;;5085730;28;20234;-74
2023/05/30 07:52:58;;;;;;;6.70;2.73;;;;;;;;;;5075667;28;20238;-73
2023/05/30 07:55:26;;;;;;;7.23;3.13;;;;;;;;;;5079162;28;20238;-74
2023/05/30 07:57:52;;;;;;;7.30;3.10;;;;;;;;;;5086537;28;20175;-75
2023/05/30 08:00:18;;;;;;;5.67;2.70;;;;;;;;;;5084010;28;20714;-74
2023/05/30 08:02:44;;;;;;;7.67;2.73;;;;;;;;;;5076079;28;20226;-74
2023/05/30 08:05:11;;;;;;;5.70;2.67;;;;;;;;;;5094068;28;20184;-75
2023/05/30 08:07:37;;;;;;;8.83;3.00;;;;;;;;;;5077431;28;20185;-74
2023/05/30 08:10:03;;;;;;;7.37;3.00;;;;;;;;;;5087695;28;20282;-74
2023/05/30 08:12:29;;;;;;;5.37;2.87;;;;;;;;;;5097013;28;20203;-74
2023/05/30 08:14:56;;;;;;;8.00;2.97;;;;;;;;;;5084602;28;20563;-74
2023/05/30 08:17:29;;;;;;;6.17;2.83;;;;;;;;;;5110129;28;20178;-74
2023/05/30 08:19:55;;;;;;;6.60;3.10;;;;;;;;;;5105821;28;20634;-74
2023/05/30 08:22:23;;;;;;;7.10;3.03;;;;;;;;;;5092393;28;20648;-74
2023/05/30 08:24:50;;;;;;;6.47;2.90;;;;;;;;;;5090140;28;20212;-74
2023/05/30 08:27:17;;;;;;;7.17;3.07;;;;;;;;;;5091463;28;20207;-74
2023/05/30 08:29:44;;;;;;;11.77;3.40;;;;;;;;;;5092656;28;20204;-74
2023/05/30 08:32:10;;;;;;;6.13;2.90;;;;;;;;;;5084957;28;20169;-74
2023/05/30 08:34:36;;;;;;;6.10;3.03;;;;;;;;;;5084142;28;20172;-74
2023/05/30 08:37:03;;;;;;;7.33;3.13;;;;;;;;;;5098520;28;20181;-74
2023/05/30 08:39:29;;;;;;;6.97;2.80;;;;;;;;;;5093178;28;20200;-74
2023/05/30 08:41:55;;;;;;;6.37;2.97;;;;;;;;;;5082392;28;20180;-74
2023/05/30 08:44:21;;;;;;;7.17;3.13;;;;;;;;;;5072146;28;20233;-74
2023/05/30 08:46:47;;;;;;;5.80;2.87;;;;;;;;;;5072876;28;20173;-74
2023/05/30 08:49:16;;;;;;;4.50;2.60;;;;;;;;;;5072416;28;20193;-74
2023/05/30 08:51:43;;;;;;;9.13;3.10;;;;;;;;;;5071338;28;20180;-74
2023/05/30 08:54:30;;;;;;;6.50;3.00;;;;;;;;;;5089121;28;20180;-74
2023/05/30 08:57:02;;;;;;;6.93;3.20;;;;;;;;;;5078436;28;20191;-75
2023/05/30 08:59:29;;;;;;;5.97;2.90;;;;;;;;;;5087788;28;20205;-75
2023/05/30 09:01:56;;;;;;;4.47;2.60;;;;;;;;;;5094860;28;20190;-74
2023/05/30 09:04:23;;;;;;;4.63;2.73;;;;;;;;;;5111941;28;20199;-74
2023/05/30 09:06:51;;;;;;;5.63;2.83;;;;;;;;;;5092871;28;20255;-74
2023/05/30 09:09:18;;;;;;;7.43;3.47;;;;;;;;;;5090749;28;20223;-74
2023/05/30 09:11:45;;;;;;;9.00;3.00;;;;;;;;;;5085767;28;20212;-74
2023/05/30 09:14:11;;;;;;;9.63;3.20;;;;;;;;;;5101293;28;20185;-74
2023/05/30 09:16:37;;;;;;;5.50;2.93;;;;;;;;;;5082939;28;20593;-74
2023/05/30 09:19:04;;;;;;;8.07;3.10;;;;;;;;;;5071181;28;20200;-74
2023/05/30 09:21:31;;;;;;;6.93;3.10;;;;;;;;;;5072370;28;20242;-74
2023/05/30 09:24:04;;;;;;;5.57;2.90;;;;;;;;;;5087367;28;20253;-74
2023/05/30 09:26:32;;;;;;;9.73;3.03;;;;;;;;;;5083067;28;20612;-75
2023/05/30 09:29:02;;;;;;;7.63;2.90;;;;;;;;;;5094844;28;20204;-74
2023/05/30 09:31:28;;;;;;;9.80;3.13;;;;;;;;;;5096442;28;20180;-74
2023/05/30 09:33:54;;;;;;;9.50;3.23;;;;;;;;;;5092355;28;20197;-74
2023/05/30 09:36:21;;;;;;;5.50;2.93;;;;;;;;;;5106766;28;20175;-74
2023/05/30 09:38:53;;;;;;;6.43;3.00;;;;;;;;;;5097830;28;20212;-75
2023/05/30 09:41:20;;;;;;;4.40;2.90;;;;;;;;;;5088915;28;20212;-74
2023/05/30 09:43:52;;;;;;;7.67;3.20;;;;;;;;;;5093296;28;20208;-74
2023/05/30 09:46:21;;;;;;;5.87;2.70;;;;;;;;;;5074491;28;20230;-74
2023/05/30 09:48:48;;;;;;;7.30;3.00;;;;;;;;;;5100020;28;20216;-74
2023/05/30 09:51:15;;;;;;;7.17;3.20;;;;;;;;;;5108650;28;20667;-75
2023/05/30 09:53:53;;;;;;;7.87;3.43;;;;;;;;;;5092670;28;20267;-75
2023/05/30 09:56:20;;;;;;;7.40;3.40;;;;;;;;;;5108550;28;20187;-75
2023/05/30 09:58:46;;;;;;;6.03;3.30;;;;;;;;;;5111737;28;20208;-75
2023/05/30 10:01:16;;;;;;;8.80;3.10;;;;;;;;;;5111812;28;20175;-75
2023/05/30 10:03:44;;;;;;;7.10;3.33;;;;;;;;;;5111094;28;20268;-75
2023/05/30 10:06:12;;;;;;;6.00;3.20;;;;;;;;;;5075428;28;20272;-75
2023/05/30 10:08:39;;;;;;;7.40;3.40;;;;;;;;;;5089780;28;20588;-74
2023/05/30 10:11:06;;;;;;;8.40;3.17;;;;;;;;;;5073235;28;20306;-74
2023/05/30 10:13:32;;;;;;;7.53;3.20;;;;;;;;;;5080322;28;20216;-75
2023/05/30 10:15:59;;;;;;;6.73;3.30;;;;;;;;;;5092248;28;20172;-75
2023/05/30 10:18:25;;;;;;;8.50;3.10;;;;;;;;;;5109873;28;20659;-75
2023/05/30 10:20:51;;;;;;;8.93;3.20;;;;;;;;;;5101051;28;20611;-75
2023/05/30 10:23:19;;;;;;;7.30;3.60;;;;;;;;;;5088545;28;20215;-74
2023/05/30 10:25:47;;;;;;;8.93;3.70;;;;;;;;;;5094292;28;20177;-74
2023/05/30 10:28:18;;;;;;;9.90;3.40;;;;;;;;;;5101522;28;20277;-74
2023/05/30 10:30:44;;;;;;;7.00;2.80;;;;;;;;;;5086532;28;20185;-75
2023/05/30 10:33:12;;;;;;;9.10;3.20;;;;;;;;;;5110111;28;20263;-75
2023/05/30 10:35:38;;;;;;;7.33;3.23;;;;;;;;;;5114704;28;20187;-75
2023/05/30 10:38:06;;;;;;;6.67;2.93;;;;;;;;;;5115600;28;20207;-75
2023/05/30 10:40:36;;;;;;;7.10;3.23;;;;;;;;;;5101957;28;20272;-75
2023/05/30 10:43:11;;;;;;;5.97;3.23;;;;;;;;;;5072877;28;20209;-75
2023/05/30 10:45:47;;;;;;;8.80;3.30;;;;;;;;;;5075136;28;20196;-74
2023/05/30 10:48:26;;;;;;;6.70;3.30;;;;;;;;;;5089040;28;20227;-75
2023/05/30 10:50:54;;;;;;;9.10;3.63;;;;;;;;;;5096035;28;20267;-75
2023/05/30 10:53:21;;;;;;;4.60;3.10;;;;;;;;;;5090148;28;20188;-75
2023/05/30 10:55:50;;;;;;;5.53;2.83;;;;;;;;;;5088817;28;20197;-75
2023/05/30 10:58:38;;;;;;;8.37;2.93;;;;;;;;;;5094303;28;20193;-75
2023/05/30 11:01:24;;;;;;;8.47;3.20;;;;;;;;;;5089023;28;20660;-75
2023/05/30 11:03:56;;;;;;;5.37;2.83;;;;;;;;;;5100678;28;20213;-75
2023/05/30 11:06:22;;;;;;;6.07;3.20;;;;;;;;;;5102595;28;20188;-75
2023/05/30 11:08:52;;;;;;;6.47;3.00;;;;;;;;;;5107234;28;20764;-75
2023/05/30 11:11:19;;;;;;;7.03;3.13;;;;;;;;;;5077862;28;20598;-75
2023/05/30 11:13:46;;;;;;;4.53;3.10;;;;;;;;;;5073251;28;20184;-75
2023/05/30 11:16:23;;;;;;;6.03;2.97;;;;;;;;;;5081349;28;20664;-75
2023/05/30 11:18:53;;;;;;;8.27;2.70;;;;;;;;;;5103978;28;20202;-75
2023/05/30 11:21:38;;;;;;;4.63;2.83;;;;;;;;;;5097666;28;20189;-76
2023/05/30 11:24:04;;;;;;;5.93;2.97;;;;;;;;;;5093741;28;20290;-76
2023/05/30 11:26:50;;;;;;;5.83;2.93;;;;;;;;;;5080106;28;20185;-76
2023/05/30 11:29:29;;;;;;;7.13;2.70;;;;;;;;;;5074070;28;20193;-76
2023/05/30 11:31:56;;;;;;;4.23;2.67;;;;;;;;;;5086371;28;20185;-75
2023/05/30 11:34:22;;;;;;;6.40;2.83;;;;;;;;;;5092277;28;20321;-75
2023/05/30 11:36:49;;;;;;;4.30;2.73;;;;;;;;;;5093866;28;20187;-76
2023/05/30 11:39:18;;;;;;;4.97;2.80;;;;;;;;;;5099325;28;20578;-75
2023/05/30 11:41:45;;;;;;;4.83;3.33;;;;;;;;;;5098245;28;20213;-76
2023/05/30 11:44:11;;;;;;;5.77;2.73;;;;;;;;;;5087766;28;20233;-77
2023/05/30 11:46:37;;;;;;;3.93;2.70;;;;;;;;;;5096701;28;20187;-76
2023/05/30 11:49:07;;;;;;;4.03;2.40;;;;;;;;;;5114495;28;20286;-76
2023/05/30 11:51:33;;;;;;;5.73;2.67;;;;;;;;;;5086573;28;20244;-75
2023/05/30 11:54:01;;;;;;;5.00;2.53;;;;;;;;;;5085859;28;20679;-74
2023/05/30 11:56:29;;;;;;;4.40;3.00;;;;;;;;;;5084645;28;20188;-74
2023/05/30 11:58:59;;;;;;;3.47;2.47;;;;;;;;;;5088009;28;20682;-74
2023/05/30 12:01:26;;;;;;;5.77;2.87;;;;;;;;;;5087456;28;20186;-74
2023/05/30 12:03:54;;;;;;;5.77;2.97;;;;;;;;;;5094297;28;20570;-74
2023/05/30 12:06:20;;;;;;;4.73;2.50;;;;;;;;;;5089416;28;20175;-74
2023/05/30 12:08:47;;;;;;;4.80;2.60;;;;;;;;;;5078736;28;20271;-74
2023/05/30 12:11:13;;;;;;;4.13;2.40;;;;;;;;;;5098112;28;20184;-74
2023/05/30 12:13:40;;;;;;;6.53;2.77;;;;;;;;;;5095346;28;20186;-75
2023/05/30 12:16:06;;;;;;;5.23;2.67;;;;;;;;;;5097984;28;20188;-75
2023/05/30 12:18:35;;;;;;;4.20;2.60;;;;;;;;;;5092657;28;20200;-74
2023/05/30 12:21:01;;;;;;;4.47;2.43;;;;;;;;;;5094106;28;20235;-74
2023/05/30 12:23:27;;;;;;;9.23;2.83;;;;;;;;;;5086260;28;20203;-74
2023/05/30 12:25:54;;;;;;;6.13;3.10;;;;;;;;;;5083298;28;20175;-74
2023/05/30 12:28:21;;;;;;;6.37;2.90;;;;;;;;;;5079509;28;20211;-75
2023/05/30 12:30:48;;;;;;;5.33;2.83;;;;;;;;;;5072909;28;20598;-74
2023/05/30 12:33:18;;;;;;;5.07;2.80;;;;;;;;;;5090937;28;20223;-75
2023/05/30 12:35:45;;;;;;;4.60;2.87;;;;;;;;;;5113613;28;20552;-75
2023/05/30 12:38:12;;;;;;;4.93;2.50;;;;;;;;;;5113128;28;20314;-75
2023/05/30 12:40:43;;;;;;;5.93;2.90;;;;;;;;;;5095150;28;20225;-75
2023/05/30 12:43:09;;;;;;;4.23;2.50;;;;;;;;;;5112125;28;20677;-75
2023/05/30 12:45:35;;;;;;;4.13;2.37;;;;;;;;;;5112972;28;20187;-75
2023/05/30 12:48:01;;;;;;;3.83;2.77;;;;;;;;;;5096759;28;20341;-75
2023/05/30 12:50:27;;;;;;;4.37;2.70;;;;;;;;;;5091155;28;20204;-75
2023/05/30 12:52:53;;;;;;;4.63;2.57;;;;;;;;;;5091645;28;20188;-75
2023/05/30 12:55:20;;;;;;;5.50;2.70;;;;;;;;;;5089743;28;20248;-75
2023/05/30 12:57:46;;;;;;;3.93;2.50;;;;;;;;;;5097538;28;20195;-75
2023/05/30 13:00:12;;;;;;;5.80;2.80;;;;;;;;;;5089481;28;20215;-75
2023/05/30 13:02:38;;;;;;;4.77;2.57;;;;;;;;;;5072445;28;20216;-75
2023/05/30 13:05:05;;;;;;;3.70;2.60;;;;;;;;;;5078436;28;20179;-75
2023/05/30 13:07:31;;;;;;;5.27;2.70;;;;;;;;;;5071773;28;20647;-75
2023/05/30 13:09:57;;;;;;;6.23;2.90;;;;;;;;;;5071832;28;20205;-75
2023/05/30 13:12:23;;;;;;;5.03;2.67;;;;;;;;;;5071320;28;20287;-74
2023/05/30 13:14:49;;;;;;;7.17;2.67;;;;;;;;;;5096942;28;20181;-74
2023/05/30 13:17:15;;;;;;;9.63;2.97;;;;;;;;;;5106397;28;20186;-74
2023/05/30 13:19:41;;;;;;;5.23;2.63;;;;;;;;;;5091790;28;20196;-74
2023/05/30 13:22:08;;;;;;;5.40;2.60;;;;;;;;;;5090920;28;20668;-74
2023/05/30 13:24:34;;;;;;;4.87;2.97;;;;;;;;;;5090860;28;20319;-74
2023/05/30 13:27:01;;;;;;;6.47;2.97;;;;;;;;;;5090701;28;20159;-75
2023/05/30 13:29:27;;;;;;;5.37;2.60;;;;;;;;;;5084238;28;20278;-75
2023/05/30 13:31:53;;;;;;;7.17;3.10;;;;;;;;;;5101709;28;20721;-75
2023/05/30 13:34:20;;;;;;;3.97;2.60;;;;;;;;;;5108807;28;20181;-74
2023/05/30 13:36:46;;;;;;;3.60;2.60;;;;;;;;;;5075200;28;20225;-75
2023/05/30 13:39:13;;;;;;;4.20;2.60;;;;;;;;;;5096200;28;20208;-75
2023/05/30 13:41:39;;;;;;;3.70;2.30;;;;;;;;;;5112167;28;20187;-74
2023/05/30 13:44:05;;;;;;;5.23;2.50;;;;;;;;;;5082651;28;20210;-74
2023/05/30 13:46:31;;;;;;;6.57;2.73;;;;;;;;;;5083205;28;20191;-74
2023/05/30 13:48:59;;;;;;;5.67;2.80;;;;;;;;;;5083646;28;20205;-75
2023/05/30 13:51:25;;;;;;;3.83;2.43;;;;;;;;;;5091256;28;20178;-74
2023/05/30 13:53:51;;;;;;;3.50;2.40;;;;;;;;;;5069720;28;20199;-74
2023/05/30 13:56:17;;;;;;;5.07;2.63;;;;;;;;;;5085680;28;20331;-75
2023/05/30 13:58:44;;;;;;;4.50;2.73;;;;;;;;;;5095721;28;20199;-75
2023/05/30 14:01:10;;;;;;;4.10;3.00;;;;;;;;;;5096097;28;20272;-75
2023/05/30 14:03:36;;;;;;;3.63;2.30;;;;;;;;;;5094547;28;20291;-75
2023/05/30 14:06:04;;;;;;;4.53;2.47;;;;;;;;;;5086428;28;20190;-75
2023/05/30 14:08:31;;;;;;;4.03;2.50;;;;;;;;;;5091533;28;20550;-75
2023/05/30 14:10:58;;;;;;;5.53;2.30;;;;;;;;;;5111599;28;20190;-75
2023/05/30 14:13:24;;;;;;;4.03;2.60;;;;;;;;;;5108979;28;20508;-75
2023/05/30 14:15:50;;;;;;;4.33;2.53;;;;;;;;;;5111773;28;20225;-75
2023/05/30 14:18:17;;;;;;;4.87;2.50;;;;;;;;;;5093436;28;20224;-75
2023/05/30 14:20:43;;;;;;;5.10;2.50;;;;;;;;;;5102881;28;20186;-75
2023/05/30 14:23:09;;;;;;;4.13;2.30;;;;;;;;;;5109428;28;20240;-75
2023/05/30 14:25:36;;;;;;;3.43;2.20;;;;;;;;;;5082128;28;20197;-75
2023/05/30 14:28:02;;;;;;;8.80;2.60;;;;;;;;;;5096659;28;20258;-75
2023/05/30 14:30:29;;;;;;;3.80;2.30;;;;;;;;;;5109367;28;20261;-75
2023/05/30 14:32:56;;;;;;;4.43;2.20;;;;;;;;;;5110787;28;20183;-75
2023/05/30 14:35:22;;;;;;;5.07;2.42;;;;;;;;;;5111443;28;20263;-75
2023/05/30 14:37:49;;;;;;;4.20;2.40;;;;;;;;;;5095578;28;20221;-75
2023/05/30 14:40:15;;;;;;;4.67;2.47;;;;;;;;;;5098327;28;20183;-76
2023/05/30 14:42:41;;;;;;;4.83;2.73;;;;;;;;;;5074635;28;20260;-75
2023/05/30 14:45:07;;;;;;;4.20;2.63;;;;;;;;;;5070818;28;20210;-75